createdAt,value
2023-01-26T00:05:05.707Z,98604.00
2023-01-26T00:10:31.051Z,98596.00
2023-01-26T00:16:12.688Z,98597.00
2023-01-26T00:21:58.913Z,98601.00
2023-01-26T00:27:47.309Z,98591.00
2023-01-26T00:33:14.367Z,98583.00
2023-01-26T00:38:43.309Z,98582.00
2023-01-26T00:44:06.300Z,98579.00
2023-01-26T00:49:27.837Z,98572.00
2023-01-26T00:54:49.449Z,98568.00
2023-01-26T01:00:16.830Z,98576.00
2023-01-26T01:06:15.531Z,98591.00
2023-01-26T01:11:42.726Z,98582.00
2023-01-26T01:17:13.177Z,98576.00
2023-01-26T01:22:51.749Z,98566.00
2023-01-26T01:28:17.434Z,98577.00
2023-01-26T01:33:46.829Z,98569.00
2023-01-26T01:39:09.677Z,98572.00
2023-01-26T01:44:31.016Z,98565.00
2023-01-26T01:49:55.243Z,98562.00
2023-01-26T01:55:17.811Z,98550.00
2023-01-26T02:00:39.354Z,98540.00
2023-01-26T02:06:59.586Z,98538.00
2023-01-26T02:12:31.735Z,98529.00
2023-01-26T02:18:07.096Z,98527.00
2023-01-26T02:24:05.312Z,98516.00
2023-01-26T02:29:28.969Z,98499.00
2023-01-26T02:34:58.030Z,98484.00
2023-01-26T02:40:43.425Z,98475.00
2023-01-26T02:46:29.850Z,98471.00
2023-01-26T02:52:18.169Z,98461.00
2023-01-26T02:58:10.913Z,98459.00
2023-01-26T03:03:51.540Z,98456.00
2023-01-26T03:09:18.121Z,98440.00
2023-01-26T03:14:39.532Z,98452.00
2023-01-26T03:20:19.544Z,98461.00
2023-01-26T03:32:11.075Z,98445.00
2023-01-26T03:37:55.855Z,98446.00
2023-01-26T03:44:06.872Z,98442.00
2023-01-26T03:49:48.422Z,98431.00
2023-01-26T03:55:29.040Z,98438.00
2023-01-26T04:00:50.978Z,98434.00
2023-01-26T04:06:41.460Z,98439.00
2023-01-26T04:12:18.519Z,98431.00
2023-01-26T04:18:39.945Z,98417.00
2023-01-26T04:24:18.021Z,98428.00
2023-01-26T04:29:41.206Z,98426.00
2023-01-26T04:35:04.100Z,98420.00
2023-01-26T04:40:27.791Z,98420.00
2023-01-26T04:46:29.571Z,98414.00
2023-01-26T04:52:33.331Z,98410.00
2023-01-26T04:58:06.520Z,98415.00
2023-01-26T05:03:30.599Z,98409.00
2023-01-26T05:09:10.897Z,98415.00
2023-01-26T05:14:35.614Z,98419.00
2023-01-26T05:20:22.920Z,98425.00
2023-01-26T05:26:30.426Z,98417.00
2023-01-26T05:32:00.947Z,98428.00
2023-01-26T05:37:44.343Z,98425.00
2023-01-26T05:43:15.081Z,98424.00
2023-01-26T05:49:06.119Z,98419.00
2023-01-26T05:54:28.405Z,98421.00
2023-01-26T05:59:50.052Z,98437.00
2023-01-26T06:05:37.176Z,98427.00
2023-01-26T06:11:30.721Z,98428.00
2023-01-26T06:17:22.069Z,98434.00
2023-01-26T06:23:19.795Z,98422.00
2023-01-26T06:28:45.191Z,98429.00
2023-01-26T06:34:11.441Z,98435.00
2023-01-26T06:39:36.479Z,98431.00
2023-01-26T06:44:59.084Z,98426.00
2023-01-26T06:50:30.408Z,98434.00
2023-01-26T06:56:05.849Z,98426.00
2023-01-26T07:02:02.886Z,98430.00
2023-01-26T07:07:33.167Z,98433.00
2023-01-26T07:13:05.496Z,98434.00
2023-01-26T07:18:52.461Z,98431.00
2023-01-26T07:24:15.052Z,98444.00
2023-01-26T07:29:36.582Z,98436.00
2023-01-26T07:34:58.232Z,98423.00
2023-01-26T07:40:19.958Z,98422.00
2023-01-26T07:45:58.576Z,98432.00
2023-01-26T07:51:39.137Z,98422.00
2023-01-26T07:57:20.700Z,98433.00
2023-01-26T08:03:13.327Z,98433.00
2023-01-26T08:08:46.335Z,98430.00
2023-01-26T08:14:07.975Z,98446.00
2023-01-26T08:19:29.435Z,98444.00
2023-01-26T08:24:51.061Z,98429.00
2023-01-26T08:30:14.163Z,98418.00
2023-01-26T08:36:37.956Z,98424.00
2023-01-26T08:42:22.714Z,98420.00
2023-01-26T08:48:04.260Z,98412.00
2023-01-26T08:53:47.245Z,98407.00
2023-01-26T08:59:12.681Z,98412.00
2023-01-26T09:04:45.771Z,98426.00
2023-01-26T09:10:10.207Z,98433.00
2023-01-26T09:15:31.958Z,98444.00
2023-01-26T09:21:29.585Z,98429.00
2023-01-26T09:27:12.789Z,98434.00
2023-01-26T09:32:56.081Z,98430.00
2023-01-26T09:38:31.796Z,98427.00
2023-01-26T09:44:08.253Z,98435.00
2023-01-26T09:50:00.749Z,98434.00
2023-01-26T09:55:27.967Z,98437.00
2023-01-26T10:00:58.193Z,98441.00
2023-01-26T10:06:33.214Z,98432.00
2023-01-26T10:12:49.529Z,98436.00
2023-01-26T10:18:45.890Z,98425.00
2023-01-26T10:24:15.628Z,98423.00
2023-01-26T10:29:37.249Z,98427.00
2023-01-26T10:34:58.912Z,98411.00
2023-01-26T10:40:21.385Z,98423.00
2023-01-26T10:45:56.753Z,98410.00
2023-01-26T10:51:52.518Z,98407.00
2023-01-26T10:57:49.459Z,98403.00
2023-01-26T11:03:34.278Z,98407.00
2023-01-26T11:09:39.183Z,98411.00
2023-01-26T11:15:20.557Z,98412.00
2023-01-26T11:20:59.843Z,98401.00
2023-01-26T11:26:56.379Z,98400.00
2023-01-26T11:33:14.104Z,98394.00
2023-01-26T11:39:06.939Z,98397.00
2023-01-26T11:44:56.184Z,98385.00
2023-01-26T11:50:31.497Z,98374.00
2023-01-26T11:56:28.373Z,98362.00
2023-01-26T12:02:32.217Z,98364.00
2023-01-26T12:08:10.555Z,98366.00
2023-01-26T12:13:46.866Z,98352.00
2023-01-26T12:19:34.001Z,98343.00
2023-01-26T12:25:20.137Z,98320.00
2023-01-26T12:30:44.973Z,98328.00
2023-01-26T12:36:47.837Z,98321.00
2023-01-26T12:42:54.098Z,98314.00
2023-01-26T12:48:53.769Z,98301.00
2023-01-26T12:54:32.844Z,98306.00
2023-01-26T13:00:03.060Z,98298.00
2023-01-26T13:05:46.967Z,98304.00
2023-01-26T13:11:58.889Z,98314.00
2023-01-26T13:17:58.319Z,98302.00
2023-01-26T13:23:54.698Z,98309.00
2023-01-26T13:29:52.838Z,98304.00
2023-01-26T13:35:18.808Z,98302.00
2023-01-26T13:41:21.873Z,98312.00
2023-01-26T13:47:39.055Z,98318.00
2023-01-26T13:53:01.475Z,98306.00
2023-01-26T13:58:42.155Z,98301.00
2023-01-26T14:04:36.979Z,98298.00
2023-01-26T14:10:09.145Z,98291.00
2023-01-26T14:15:32.957Z,98304.00
2023-01-26T14:21:17.252Z,98301.00
2023-01-26T14:27:08.642Z,98301.00
2023-01-26T14:33:01.538Z,98306.00
2023-01-26T14:38:52.432Z,98300.00
2023-01-26T14:44:20.859Z,98303.00
2023-01-26T14:50:00.298Z,98318.00
2023-01-26T14:55:34.173Z,98312.00
2023-01-26T15:01:01.293Z,98325.00
2023-01-26T15:06:39.453Z,98312.00
2023-01-26T15:12:25.053Z,98319.00
2023-01-26T15:18:33.144Z,98322.00
2023-01-26T15:24:02.190Z,98326.00
2023-01-26T15:29:30.810Z,98331.00
2023-01-26T15:35:26.921Z,98332.00
2023-01-26T15:40:59.150Z,98326.00
2023-01-26T15:46:33.166Z,98325.00
2023-01-26T15:52:23.034Z,98314.00
2023-01-26T15:57:56.973Z,98326.00
2023-01-26T16:03:39.121Z,98333.00
2023-01-26T16:09:02.524Z,98328.00
2023-01-26T16:14:24.043Z,98328.00
2023-01-26T16:19:45.670Z,98334.00
2023-01-26T16:25:29.698Z,98327.00
2023-01-26T16:30:58.636Z,98333.00
2023-01-26T16:36:48.035Z,98341.00
2023-01-26T16:42:27.040Z,98343.00
2023-01-26T16:48:02.363Z,98350.00
2023-01-26T16:53:49.276Z,98333.00
2023-01-26T16:59:21.745Z,98334.00
2023-01-26T17:04:57.414Z,98331.00
2023-01-26T17:10:20.089Z,98329.00
2023-01-26T17:15:43.160Z,98343.00
2023-01-26T17:21:30.387Z,98348.00
2023-01-26T17:27:09.195Z,98348.00
2023-01-26T17:32:57.097Z,98356.00
2023-01-26T17:38:38.893Z,98354.00
2023-01-26T17:44:07.126Z,98356.00
2023-01-26T17:49:29.371Z,98358.00
2023-01-26T17:54:50.755Z,98345.00
2023-01-26T18:00:13.171Z,98348.00
2023-01-26T18:05:40.027Z,98351.00
2023-01-26T18:11:31.093Z,98349.00
2023-01-26T18:17:12.821Z,98362.00
2023-01-26T18:22:49.875Z,98369.00
2023-01-26T18:28:31.502Z,98376.00
2023-01-26T18:34:01.984Z,98364.00
2023-01-26T18:39:25.756Z,98380.00
2023-01-26T18:44:47.481Z,98372.00
2023-01-26T18:50:10.944Z,98376.00
2023-01-26T18:55:34.618Z,98384.00
2023-01-26T19:00:55.979Z,98381.00
2023-01-26T19:06:18.791Z,98380.00
2023-01-26T19:12:08.461Z,98388.00
2023-01-26T19:23:26.255Z,98385.00
2023-01-26T19:28:59.595Z,98367.00
2023-01-26T19:34:25.904Z,98363.00
2023-01-26T19:39:47.719Z,98372.00
2023-01-26T19:45:09.995Z,98359.00
2023-01-26T19:50:31.508Z,98362.00
2023-01-26T19:55:58.819Z,98375.00
2023-01-26T20:01:21.770Z,98372.00
2023-01-26T20:07:20.979Z,98373.00
2023-01-26T20:12:42.618Z,98373.00
2023-01-26T20:18:16.152Z,98375.00
2023-01-26T20:23:55.371Z,98381.00
2023-01-26T20:29:20.041Z,98380.00
2023-01-26T20:34:41.260Z,98359.00
2023-01-26T20:40:04.235Z,98370.00
2023-01-26T20:45:30.629Z,98376.00
2023-01-26T20:50:55.873Z,98361.00
2023-01-26T20:56:46.538Z,98358.00
2023-01-26T21:02:21.816Z,98361.00
2023-01-26T21:07:44.307Z,98358.00
2023-01-26T21:13:21.036Z,98366.00
2023-01-26T21:18:55.941Z,98364.00
2023-01-26T21:24:21.270Z,98359.00
2023-01-26T21:29:42.769Z,98362.00
2023-01-26T21:35:04.482Z,98358.00
2023-01-26T21:40:26.285Z,98360.00
2023-01-26T21:45:55.371Z,98353.00
2023-01-26T21:51:47.941Z,98337.00
2023-01-26T21:57:44.710Z,98351.00
2023-01-26T22:03:17.014Z,98353.00
2023-01-26T22:08:39.086Z,98352.00
2023-01-26T22:14:07.264Z,98356.00
2023-01-26T22:19:29.558Z,98352.00
2023-01-26T22:24:51.770Z,98355.00
2023-01-26T22:30:13.839Z,98344.00
2023-01-26T22:35:35.548Z,98347.00
2023-01-26T22:41:30.821Z,98347.00
2023-01-26T22:47:05.427Z,98355.00
2023-01-26T22:52:47.764Z,98346.00
2023-01-26T22:58:55.577Z,98346.00
2023-01-26T23:04:45.919Z,98342.00
2023-01-26T23:10:29.182Z,98349.00
2023-01-26T23:15:54.368Z,98344.00
2023-01-26T23:21:31.506Z,98353.00
2023-01-26T23:27:14.421Z,98356.00
2023-01-26T23:32:55.518Z,98351.00
2023-01-26T23:38:44.301Z,98335.00
2023-01-26T23:44:11.673Z,98347.00
2023-01-26T23:49:34.208Z,98354.00
2023-01-26T23:54:55.594Z,98339.00
